Key West, Florida
Current Conditions -  °F | °C
As of 3:53 PM on Monday 22 Dec 2014 (Local Time) from KEYW Reporting Station
Clear Clear  
Wind Chill: 26°   Ceiling: Unl
Heat Index: 28°   Visibility: 10mi
Dew Point: 22°   Wind: 7mph
Humidity: 79%   Direction: 160°SSE
Pressure: 29.94"   Gusts: NA
Location:  24.55°N, 81.8°W
Report Text: KEYW 222053Z 16006KT 10SM CLR 26/22 A2994 RMK AO2 SLP138 T02610222 56014
Loading
Personal Weather Stations






























Interactive Weather Map New forecast layout! Learn more

10-Day Weather Forecast

Advertisements
Track Severe Weather on mobile